Carmel Valley, CA

11:38 AM PDT on October 23, 2014 (GMT -0700)
Santa Lucia Preserve | Change Station
CLOSE
Current Station
Personal Weather Station
Location: Carmel, CA
Elevation: 2200 ft
Nearby Weather Stations

Elev 2200 ft 36.47 °N, 121.77 °W | Updated 14 minutes ago

Clear
Clear
67.9 °F
Feels Like 67.9 °F
N
0.0
Wind Variable Wind from NW

Today
High -- | Low -- °F
--% Chance of Precip.
Yesterday
High -- | Low -- °F
Precip. -- in
7:21 AM 6:20 PM
Waning Crescent, 0% visible
Pressure 30.11 in
Visibility 10.0 miles
Clouds Clear
Dew Point 49 °F
Humidity 51%
Rainfall 0.00 in
Snow Depth Not available.
UV 4 out of 12
Pollen 1.70 out of 12
Air Quality Not available.
Flu Activity Sporadic
METAR KMRY 231754Z 00000KT 10SM CLR 20/11 A3008 RMK AO2 SLP195 T02000111 10200 20111 51007

More Conditions Fewer Conditions

Pressure 30.11 in
Visibility 10.0 miles
Clouds Clear
Dew Point 49 °F
Humidity 51%
Rainfall 0.00 in
Snow Depth Not available.
UV 4 out of 12
Pollen 1.70 out of 12
Air Quality Not available.
Flu Activity Sporadic
METAR KMRY 231754Z 00000KT 10SM CLR 20/11 A3008 RMK AO2 SLP195 T02000111 10200 20111 51007

More Conditions Fewer Conditions

10-Day Weather Forecast

Almanac

Astronomy

Oct. 23, 2014 Rise Set
Actual Time 7:21 AM PDT 6:20 PM PDT
Civil Twilight 6:54 AM PDT 6:46 PM PDT
Nautical Twilight 6:24 AM PDT 7:16 PM PDT
Astronomical Twilight 5:54 AM PDT 7:46 PM PDT
Moon 7:06 AM PDT 6:25 PM PDT
Length of Visible Light 11h 51m
Length of Day
10h 58m
Tomorrow will be 2m 9s shorter.
Waning Crescent, 0% of the Moon is Illuminated
Today
Waning Crescent
Oct 23
New
Oct 30
First Quarter
Nov 6
Full
Nov 14
Last Quarter

Today's Extremes

State Highs State Lows

Community

WunderPhotos

Upload Photos

1,764,338 photos uploaded!

WunderBlogs® & News

Nearby

Snow Depth

Station Depth Elevation
Leavitt Lake 0 in 9400 ft
Virginia Lakes Ridge 0 in 9200 ft
Leavitt Meadows 0 in 7200 ft
Blue Lakes 0 in 8000 ft
Summit Meadow 1 in 9122 ft

Earthquake Activity

City Distance Mag. Time & Date
Solvang, California 160 miles 2.6 5:35 PM PDT
2014-10-22
Kettleman City, California 111 miles 2.5 9:08 AM PDT
2014-10-22
Minimum magnitude displayed is 2.5.

Coastal Water Temperatures

Place Temperature
Monterey, CA 63.0 °F
Port San Luis, CA 63.0 °F

Nearby Weather Stations